Capitol Logistics 336


KMIA
Miami International Airport
Miami, Florida, US
KAFW
Fort Worth Alliance Airport
Fort Worth, Texas, US

Activity Log

Date Flight Route Aircraft Duration
06/17/2019 CPX336 KMIA WINCO2 WINCO J73 LBV SRQ Q100 REDFN Q105 HRV J58 AEX DODJE5 KAFW B763 2h 37m

Route Details

Aircraft Information
Primary: Boeing 767-300BDSF
Backup: Not Available
Route Data
Distance: 989nm
Sched. Duration: 3h 29m
Avg. Duration: 2h 37m (-92m)
Times Flown: 1
Recm'd Route: WINCO2 WINCO CHRRI DOLIE Y280 REDFN Q105 HRV J58 AEX PNUTS REEKO3
Planned Altitude: 34,000ft
Origin Wx: KMIA 231353Z 06012G18KT 10SM FEW035 22/12 A3021 RMK AO2 SLP229 T02220122
Dest. Wx: KAFW 231353Z 16011KT 10SM BKN140 OVC200 11/07 A3004 RMK AO2 SLP174 T01060072
Notes:

Financial History
Total Freight: 80,526lbs
Average Load: 80,526lbs/flt
Fuel Used: 25,504lbs
Avg. Fuel Used: 25,504lbs/flt
Fuel Expense: $31,370
Avg. Fuel Expense: $31,370
Avg. Fuel Cost: $1.23/lbs
Total Gross Income: $103,879
Pilot Pay: $229
Total Expenses: $11,271
Total Revenue: $60,635
Average Revenue: $103,878.54